Christmas Island, Australian Islands

6:57 AM CXT on September 03, 2014 (GMT +0700)
Christmas Island | Change Station
CLOSE
Current Station
Airport
Location: Christmas Island,
Elevation: 860 ft
Nearby Weather Stations

Elev 860 ft 10.45 °S, 105.69 °E | Updated 56 minutes ago

Mostly Cloudy
Mostly Cloudy
73 °F
Feels Like 73 °F
N
13
Wind Variable Wind from East

Today
High -- | Low -- °F
--% Chance of Precip.
Yesterday
High -- | Low -- °F
Precip. -- in
5:59 AM 5:54 PM
First Quarter, 56% visible
Pressure 29.98 in
Visibility 6.2 miles
Clouds Mostly Cloudy 1100 ft
Mostly Cloudy 1900 ft
Dew Point 68 °F
Humidity 83%
Rainfall 0.00 in
Snow Depth Not available.
UV 0 out of 12
Pollen Not available.
Air Quality Not available.
Flu Activity Not available.
METAR YPXM 022301Z AUTO 08011KT 9999 // BKN011 BKN019 23/20 Q1015

More Conditions Fewer Conditions

Pressure 29.98 in
Visibility 6.2 miles
Clouds Mostly Cloudy 1100 ft
Mostly Cloudy 1900 ft
Dew Point 68 °F
Humidity 83%
Rainfall 0.00 in
Snow Depth Not available.
UV 0 out of 12
Pollen Not available.
Air Quality Not available.
Flu Activity Not available.
METAR YPXM 022301Z AUTO 08011KT 9999 // BKN011 BKN019 23/20 Q1015

More Conditions Fewer Conditions

10-Day Weather Forecast

Almanac

Astronomy

Sep. 03, 2014 Rise Set
Actual Time 5:59 AM CXT 5:54 PM CXT
Civil Twilight 5:37 AM CXT 6:15 PM CXT
Nautical Twilight 5:13 AM CXT 6:40 PM CXT
Astronomical Twilight 4:48 AM CXT 7:04 PM CXT
Moon 12:13 PM CXT (9/3) 12:13 AM CXT (9/3)
Length of Visible Light 12h 37m
Length of Day
11h 55m
Tomorrow will be 0m 33s longer.
First Quarter, 56% of the Moon is Illuminated
Sep 2
First Quarter
Sep 8
Full
Sep 15
Last Quarter
Sep 24
New
Oct 1
First Quarter

Yesterday's Extremes

Country Highs Country Lows

Community

WunderPhotos

Upload Photos

1,749,799 photos uploaded!

Nearby

Snow Depth

Not available.

Earthquake Activity

City Distance Mag. Time & Date
No recent earthquake activity has been reported nearby.
Minimum magnitude displayed is 2.5.

Coastal Water Temperatures

Place Temperature
No Stations Reporting

Nearby Weather Stations